sensor_id;sensor_type;location;lat;lon;timestamp;P1;durP1;ratioP1;P2;durP2;ratioP2
48925;SDS011;39838;59.938;30.642;2023-04-15T00:02:22;7.03;;;3.08;;
48925;SDS011;39838;59.938;30.642;2023-04-15T00:04:51;4.82;;;2.65;;
48925;SDS011;39838;59.938;30.642;2023-04-15T00:07:18;5.65;;;2.60;;
48925;SDS011;39838;59.938;30.642;2023-04-15T00:09:45;9.35;;;2.90;;
48925;SDS011;39838;59.938;30.642;2023-04-15T00:12:12;4.85;;;2.72;;
48925;SDS011;39838;59.938;30.642;2023-04-15T00:14:39;5.00;;;2.65;;
48925;SDS011;39838;59.938;30.642;2023-04-15T00:17:06;4.50;;;2.90;;
48925;SDS011;39838;59.938;30.642;2023-04-15T00:19:33;6.35;;;2.90;;
48925;SDS011;39838;59.938;30.642;2023-04-15T00:22:02;4.53;;;3.35;;
48925;SDS011;39838;59.938;30.642;2023-04-15T00:24:29;5.05;;;2.60;;
48925;SDS011;39838;59.938;30.642;2023-04-15T00:26:57;4.65;;;2.78;;
48925;SDS011;39838;59.938;30.642;2023-04-15T00:29:24;3.88;;;2.60;;
48925;SDS011;39838;59.938;30.642;2023-04-15T00:31:51;5.57;;;2.85;;
48925;SDS011;39838;59.938;30.642;2023-04-15T00:34:18;4.45;;;2.90;;
48925;SDS011;39838;59.938;30.642;2023-04-15T00:36:45;4.22;;;3.28;;
48925;SDS011;39838;59.938;30.642;2023-04-15T00:39:14;6.05;;;2.90;;
48925;SDS011;39838;59.938;30.642;2023-04-15T00:41:42;10.82;;;3.10;;
48925;SDS011;39838;59.938;30.642;2023-04-15T00:44:09;5.00;;;2.85;;
48925;SDS011;39838;59.938;30.642;2023-04-15T00:46:37;5.20;;;2.92;;
48925;SDS011;39838;59.938;30.642;2023-04-15T00:49:05;4.43;;;2.80;;
48925;SDS011;39838;59.938;30.642;2023-04-15T00:51:33;5.25;;;2.92;;
48925;SDS011;39838;59.938;30.642;2023-04-15T00:54:01;4.72;;;2.70;;
48925;SDS011;39838;59.938;30.642;2023-04-15T00:56:30;6.30;;;3.15;;
48925;SDS011;39838;59.938;30.642;2023-04-15T00:59:02;5.82;;;3.00;;
48925;SDS011;39838;59.938;30.642;2023-04-15T01:01:29;4.78;;;3.00;;
48925;SDS011;39838;59.938;30.642;2023-04-15T01:03:57;4.75;;;2.90;;
48925;SDS011;39838;59.938;30.642;2023-04-15T01:06:24;5.55;;;2.80;;
48925;SDS011;39838;59.938;30.642;2023-04-15T01:08:52;5.03;;;2.70;;
48925;SDS011;39838;59.938;30.642;2023-04-15T01:11:20;5.50;;;2.80;;
48925;SDS011;39838;59.938;30.642;2023-04-15T01:13:50;5.63;;;2.72;;
48925;SDS011;39838;59.938;30.642;2023-04-15T01:16:17;5.88;;;3.13;;
48925;SDS011;39838;59.938;30.642;2023-04-15T01:18:45;5.13;;;3.00;;
48925;SDS011;39838;59.938;30.642;2023-04-15T01:21:12;4.60;;;2.65;;
48925;SDS011;39838;59.938;30.642;2023-04-15T01:23:39;4.82;;;2.95;;
48925;SDS011;39838;59.938;30.642;2023-04-15T01:26:08;4.47;;;2.88;;
48925;SDS011;39838;59.938;30.642;2023-04-15T01:28:35;4.63;;;2.97;;
48925;SDS011;39838;59.938;30.642;2023-04-15T01:31:06;3.63;;;2.75;;
48925;SDS011;39838;59.938;30.642;2023-04-15T01:33:34;7.20;;;3.05;;
48925;SDS011;39838;59.938;30.642;2023-04-15T01:36:21;4.90;;;3.15;;
48925;SDS011;39838;59.938;30.642;2023-04-15T01:38:48;5.50;;;2.80;;
48925;SDS011;39838;59.938;30.642;2023-04-15T01:41:17;5.03;;;2.58;;
48925;SDS011;39838;59.938;30.642;2023-04-15T01:43:47;5.95;;;3.00;;
48925;SDS011;39838;59.938;30.642;2023-04-15T01:46:15;4.85;;;2.85;;
48925;SDS011;39838;59.938;30.642;2023-04-15T01:48:42;6.43;;;2.90;;
48925;SDS011;39838;59.938;30.642;2023-04-15T01:51:09;5.38;;;2.70;;
48925;SDS011;39838;59.938;30.642;2023-04-15T01:53:37;3.50;;;2.70;;
48925;SDS011;39838;59.938;30.642;2023-04-15T01:56:04;4.88;;;3.08;;
48925;SDS011;39838;59.938;30.642;2023-04-15T01:58:33;5.47;;;2.83;;
48925;SDS011;39838;59.938;30.642;2023-04-15T02:01:00;4.35;;;2.63;;
48925;SDS011;39838;59.938;30.642;2023-04-15T02:03:28;8.90;;;2.78;;
48925;SDS011;39838;59.938;30.642;2023-04-15T02:05:55;4.20;;;2.85;;
48925;SDS011;39838;59.938;30.642;2023-04-15T02:08:23;5.70;;;2.90;;
48925;SDS011;39838;59.938;30.642;2023-04-15T02:10:50;7.32;;;2.88;;
48925;SDS011;39838;59.938;30.642;2023-04-15T02:13:17;4.80;;;2.90;;
48925;SDS011;39838;59.938;30.642;2023-04-15T02:15:49;4.75;;;3.00;;
48925;SDS011;39838;59.938;30.642;2023-04-15T02:18:16;5.05;;;3.00;;
48925;SDS011;39838;59.938;30.642;2023-04-15T02:20:43;4.47;;;2.90;;
48925;SDS011;39838;59.938;30.642;2023-04-15T02:23:11;4.97;;;2.92;;
48925;SDS011;39838;59.938;30.642;2023-04-15T02:25:38;6.22;;;2.90;;
48925;SDS011;39838;59.938;30.642;2023-04-15T02:28:05;8.93;;;3.20;;
48925;SDS011;39838;59.938;30.642;2023-04-15T02:30:32;5.47;;;2.80;;
48925;SDS011;39838;59.938;30.642;2023-04-15T02:33:01;5.43;;;3.55;;
48925;SDS011;39838;59.938;30.642;2023-04-15T02:35:29;4.60;;;2.90;;
48925;SDS011;39838;59.938;30.642;2023-04-15T02:37:57;4.75;;;2.92;;
48925;SDS011;39838;59.938;30.642;2023-04-15T02:40:25;4.97;;;3.20;;
48925;SDS011;39838;59.938;30.642;2023-04-15T02:42:52;4.68;;;2.80;;
48925;SDS011;39838;59.938;30.642;2023-04-15T02:45:19;6.78;;;3.08;;
48925;SDS011;39838;59.938;30.642;2023-04-15T02:47:48;5.90;;;2.92;;
48925;SDS011;39838;59.938;30.642;2023-04-15T02:50:17;6.60;;;3.05;;
48925;SDS011;39838;59.938;30.642;2023-04-15T02:52:44;4.47;;;2.90;;
48925;SDS011;39838;59.938;30.642;2023-04-15T02:55:11;6.50;;;3.00;;
48925;SDS011;39838;59.938;30.642;2023-04-15T02:57:38;6.15;;;2.80;;
48925;SDS011;39838;59.938;30.642;2023-04-15T03:00:06;4.30;;;2.88;;
48925;SDS011;39838;59.938;30.642;2023-04-15T03:02:35;4.85;;;2.80;;
48925;SDS011;39838;59.938;30.642;2023-04-15T03:05:04;6.97;;;3.20;;
48925;SDS011;39838;59.938;30.642;2023-04-15T03:07:33;6.07;;;3.00;;
48925;SDS011;39838;59.938;30.642;2023-04-15T03:10:00;4.63;;;3.08;;
48925;SDS011;39838;59.938;30.642;2023-04-15T03:12:27;5.50;;;2.95;;
48925;SDS011;39838;59.938;30.642;2023-04-15T03:14:54;10.23;;;3.53;;
48925;SDS011;39838;59.938;30.642;2023-04-15T03:17:21;7.97;;;3.42;;
48925;SDS011;39838;59.938;30.642;2023-04-15T03:19:49;6.10;;;3.40;;
48925;SDS011;39838;59.938;30.642;2023-04-15T03:22:16;6.72;;;3.20;;
48925;SDS011;39838;59.938;30.642;2023-04-15T03:24:44;8.70;;;3.40;;
48925;SDS011;39838;59.938;30.642;2023-04-15T03:27:11;9.60;;;3.42;;
48925;SDS011;39838;59.938;30.642;2023-04-15T03:29:38;4.95;;;3.42;;
48925;SDS011;39838;59.938;30.642;2023-04-15T03:32:05;5.95;;;3.70;;
48925;SDS011;39838;59.938;30.642;2023-04-15T03:34:32;10.82;;;3.70;;
48925;SDS011;39838;59.938;30.642;2023-04-15T03:37:00;8.45;;;3.65;;
48925;SDS011;39838;59.938;30.642;2023-04-15T03:39:27;8.00;;;3.20;;
48925;SDS011;39838;59.938;30.642;2023-04-15T03:41:55;6.72;;;3.30;;
48925;SDS011;39838;59.938;30.642;2023-04-15T03:44:22;10.70;;;3.45;;
48925;SDS011;39838;59.938;30.642;2023-04-15T03:46:49;7.97;;;3.60;;
48925;SDS011;39838;59.938;30.642;2023-04-15T03:49:16;9.75;;;3.80;;
48925;SDS011;39838;59.938;30.642;2023-04-15T03:51:44;6.85;;;3.72;;
48925;SDS011;39838;59.938;30.642;2023-04-15T03:54:11;7.10;;;3.63;;
48925;SDS011;39838;59.938;30.642;2023-04-15T03:56:39;6.93;;;3.50;;
48925;SDS011;39838;59.938;30.642;2023-04-15T03:59:07;7.53;;;3.40;;
48925;SDS011;39838;59.938;30.642;2023-04-15T04:01:35;7.10;;;3.78;;
48925;SDS011;39838;59.938;30.642;2023-04-15T04:04:02;7.10;;;3.40;;
48925;SDS011;39838;59.938;30.642;2023-04-15T04:06:29;7.28;;;4.07;;
48925;SDS011;39838;59.938;30.642;2023-04-15T04:08:56;10.10;;;3.85;;
48925;SDS011;39838;59.938;30.642;2023-04-15T04:11:23;7.47;;;3.38;;
48925;SDS011;39838;59.938;30.642;2023-04-15T04:13:50;5.72;;;3.55;;
48925;SDS011;39838;59.938;30.642;2023-04-15T04:16:19;4.68;;;3.00;;
48925;SDS011;39838;59.938;30.642;2023-04-15T04:18:46;6.55;;;3.70;;
48925;SDS011;39838;59.938;30.642;2023-04-15T04:21:13;5.32;;;3.42;;
48925;SDS011;39838;59.938;30.642;2023-04-15T04:23:40;7.97;;;3.70;;
48925;SDS011;39838;59.938;30.642;2023-04-15T04:26:07;5.05;;;3.00;;
48925;SDS011;39838;59.938;30.642;2023-04-15T04:28:34;8.45;;;3.15;;
48925;SDS011;39838;59.938;30.642;2023-04-15T04:31:03;6.13;;;3.17;;
48925;SDS011;39838;59.938;30.642;2023-04-15T04:33:32;7.80;;;3.35;;
48925;SDS011;39838;59.938;30.642;2023-04-15T04:35:59;6.10;;;3.00;;
48925;SDS011;39838;59.938;30.642;2023-04-15T04:38:26;7.63;;;3.30;;
48925;SDS011;39838;59.938;30.642;2023-04-15T04:40:53;7.93;;;2.95;;
48925;SDS011;39838;59.938;30.642;2023-04-15T04:43:21;7.57;;;2.83;;
48925;SDS011;39838;59.938;30.642;2023-04-15T04:45:48;8.23;;;3.20;;
48925;SDS011;39838;59.938;30.642;2023-04-15T04:48:15;5.95;;;3.15;;
48925;SDS011;39838;59.938;30.642;2023-04-15T04:50:44;10.80;;;3.28;;
48925;SDS011;39838;59.938;30.642;2023-04-15T04:53:11;8.73;;;3.40;;
48925;SDS011;39838;59.938;30.642;2023-04-15T04:55:38;7.88;;;4.50;;
48925;SDS011;39838;59.938;30.642;2023-04-15T04:58:05;10.93;;;5.18;;
48925;SDS011;39838;59.938;30.642;2023-04-15T05:00:32;8.57;;;4.22;;
48925;SDS011;39838;59.938;30.642;2023-04-15T05:03:00;8.27;;;3.30;;
48925;SDS011;39838;59.938;30.642;2023-04-15T05:05:27;7.97;;;3.80;;
48925;SDS011;39838;59.938;30.642;2023-04-15T05:07:55;8.45;;;3.10;;
48925;SDS011;39838;59.938;30.642;2023-04-15T05:10:22;7.90;;;3.97;;
48925;SDS011;39838;59.938;30.642;2023-04-15T05:12:49;6.30;;;3.00;;
48925;SDS011;39838;59.938;30.642;2023-04-15T05:15:16;5.93;;;3.40;;
48925;SDS011;39838;59.938;30.642;2023-04-15T05:17:44;5.13;;;2.95;;
48925;SDS011;39838;59.938;30.642;2023-04-15T05:20:11;6.72;;;3.13;;
48925;SDS011;39838;59.938;30.642;2023-04-15T05:22:39;7.25;;;3.15;;
48925;SDS011;39838;59.938;30.642;2023-04-15T05:25:08;4.95;;;2.90;;
48925;SDS011;39838;59.938;30.642;2023-04-15T05:27:35;4.38;;;2.90;;
48925;SDS011;39838;59.938;30.642;2023-04-15T05:30:02;7.97;;;2.90;;
48925;SDS011;39838;59.938;30.642;2023-04-15T05:32:30;7.95;;;3.78;;
48925;SDS011;39838;59.938;30.642;2023-04-15T05:34:57;8.07;;;3.13;;
48925;SDS011;39838;59.938;30.642;2023-04-15T05:37:24;6.05;;;3.10;;
48925;SDS011;39838;59.938;30.642;2023-04-15T05:39:51;22.92;;;3.58;;
48925;SDS011;39838;59.938;30.642;2023-04-15T05:42:19;7.15;;;3.17;;
48925;SDS011;39838;59.938;30.642;2023-04-15T05:44:46;9.30;;;2.85;;
48925;SDS011;39838;59.938;30.642;2023-04-15T05:47:13;5.00;;;2.83;;
48925;SDS011;39838;59.938;30.642;2023-04-15T05:49:41;14.95;;;3.10;;
48925;SDS011;39838;59.938;30.642;2023-04-15T05:52:08;5.20;;;2.90;;
48925;SDS011;39838;59.938;30.642;2023-04-15T05:54:35;7.75;;;2.80;;
48925;SDS011;39838;59.938;30.642;2023-04-15T05:57:02;5.22;;;2.97;;
48925;SDS011;39838;59.938;30.642;2023-04-15T05:59:31;6.25;;;3.00;;
48925;SDS011;39838;59.938;30.642;2023-04-15T06:01:58;5.10;;;3.35;;
48925;SDS011;39838;59.938;30.642;2023-04-15T06:04:25;8.73;;;3.25;;
48925;SDS011;39838;59.938;30.642;2023-04-15T06:06:52;10.27;;;3.17;;
48925;SDS011;39838;59.938;30.642;2023-04-15T06:09:19;6.70;;;2.85;;
48925;SDS011;39838;59.938;30.642;2023-04-15T06:11:46;12.50;;;3.10;;
48925;SDS011;39838;59.938;30.642;2023-04-15T06:14:13;8.00;;;3.45;;
48925;SDS011;39838;59.938;30.642;2023-04-15T06:16:41;6.07;;;3.10;;
48925;SDS011;39838;59.938;30.642;2023-04-15T06:19:08;6.03;;;3.42;;
48925;SDS011;39838;59.938;30.642;2023-04-15T06:21:36;6.80;;;3.53;;
48925;SDS011;39838;59.938;30.642;2023-04-15T06:24:03;7.10;;;3.25;;
48925;SDS011;39838;59.938;30.642;2023-04-15T06:26:31;7.25;;;3.03;;
48925;SDS011;39838;59.938;30.642;2023-04-15T06:28:58;8.70;;;2.92;;
48925;SDS011;39838;59.938;30.642;2023-04-15T06:31:25;4.35;;;2.75;;
48925;SDS011;39838;59.938;30.642;2023-04-15T06:33:53;10.30;;;2.85;;
48925;SDS011;39838;59.938;30.642;2023-04-15T06:36:20;8.88;;;3.33;;
48925;SDS011;39838;59.938;30.642;2023-04-15T06:38:47;7.55;;;3.00;;
48925;SDS011;39838;59.938;30.642;2023-04-15T06:41:14;8.73;;;2.65;;
48925;SDS011;39838;59.938;30.642;2023-04-15T06:43:41;7.63;;;3.15;;
48925;SDS011;39838;59.938;30.642;2023-04-15T06:46:09;4.60;;;2.92;;
48925;SDS011;39838;59.938;30.642;2023-04-15T06:48:36;11.52;;;3.22;;
48925;SDS011;39838;59.938;30.642;2023-04-15T06:51:04;9.65;;;3.30;;
48925;SDS011;39838;59.938;30.642;2023-04-15T06:53:31;13.95;;;3.50;;
48925;SDS011;39838;59.938;30.642;2023-04-15T06:55:59;8.15;;;3.10;;
48925;SDS011;39838;59.938;30.642;2023-04-15T06:58:26;8.15;;;3.17;;
48925;SDS011;39838;59.938;30.642;2023-04-15T07:00:54;6.00;;;3.00;;
48925;SDS011;39838;59.938;30.642;2023-04-15T07:03:22;13.88;;;3.20;;
48925;SDS011;39838;59.938;30.642;2023-04-15T07:05:49;6.32;;;3.10;;
48925;SDS011;39838;59.938;30.642;2023-04-15T07:08:17;6.43;;;3.33;;
48925;SDS011;39838;59.938;30.642;2023-04-15T07:10:44;6.38;;;3.13;;
48925;SDS011;39838;59.938;30.642;2023-04-15T07:13:12;9.10;;;3.00;;
48925;SDS011;39838;59.938;30.642;2023-04-15T07:15:39;7.22;;;2.92;;
48925;SDS011;39838;59.938;30.642;2023-04-15T07:18:06;9.75;;;3.35;;
48925;SDS011;39838;59.938;30.642;2023-04-15T07:20:33;13.50;;;3.30;;
48925;SDS011;39838;59.938;30.642;2023-04-15T07:23:00;15.60;;;3.30;;
48925;SDS011;39838;59.938;30.642;2023-04-15T07:25:29;14.38;;;2.97;;
48925;SDS011;39838;59.938;30.642;2023-04-15T07:27:56;8.52;;;2.85;;
48925;SDS011;39838;59.938;30.642;2023-04-15T07:30:23;8.02;;;2.90;;
48925;SDS011;39838;59.938;30.642;2023-04-15T07:32:50;5.75;;;2.80;;
48925;SDS011;39838;59.938;30.642;2023-04-15T07:35:18;7.90;;;3.70;;
48925;SDS011;39838;59.938;30.642;2023-04-15T07:37:46;9.23;;;2.90;;
48925;SDS011;39838;59.938;30.642;2023-04-15T07:40:13;7.80;;;2.90;;
48925;SDS011;39838;59.938;30.642;2023-04-15T07:42:42;6.05;;;2.78;;
48925;SDS011;39838;59.938;30.642;2023-04-15T07:45:09;7.43;;;2.90;;
48925;SDS011;39838;59.938;30.642;2023-04-15T07:47:37;8.23;;;2.95;;
48925;SDS011;39838;59.938;30.642;2023-04-15T07:50:05;8.32;;;2.40;;
48925;SDS011;39838;59.938;30.642;2023-04-15T07:52:33;6.80;;;2.75;;
48925;SDS011;39838;59.938;30.642;2023-04-15T07:55:04;8.23;;;2.75;;
48925;SDS011;39838;59.938;30.642;2023-04-15T07:57:31;8.15;;;2.70;;
48925;SDS011;39838;59.938;30.642;2023-04-15T08:00:00;7.13;;;2.95;;
48925;SDS011;39838;59.938;30.642;2023-04-15T08:02:28;9.45;;;3.38;;
48925;SDS011;39838;59.938;30.642;2023-04-15T08:04:55;9.20;;;2.75;;
48925;SDS011;39838;59.938;30.642;2023-04-15T08:07:23;11.32;;;3.08;;
48925;SDS011;39838;59.938;30.642;2023-04-15T08:09:51;11.55;;;2.95;;
48925;SDS011;39838;59.938;30.642;2023-04-15T08:12:18;19.15;;;3.00;;
48925;SDS011;39838;59.938;30.642;2023-04-15T08:14:45;22.73;;;3.30;;
48925;SDS011;39838;59.938;30.642;2023-04-15T08:17:14;18.25;;;2.85;;
48925;SDS011;39838;59.938;30.642;2023-04-15T08:19:41;8.30;;;2.53;;
48925;SDS011;39838;59.938;30.642;2023-04-15T08:22:09;7.30;;;2.83;;
48925;SDS011;39838;59.938;30.642;2023-04-15T08:24:36;7.45;;;2.70;;
48925;SDS011;39838;59.938;30.642;2023-04-15T08:27:03;9.65;;;2.90;;
48925;SDS011;39838;59.938;30.642;2023-04-15T08:29:32;8.20;;;2.63;;
48925;SDS011;39838;59.938;30.642;2023-04-15T08:32:00;4.22;;;2.60;;
48925;SDS011;39838;59.938;30.642;2023-04-15T08:34:29;5.97;;;2.60;;
48925;SDS011;39838;59.938;30.642;2023-04-15T08:36:56;11.02;;;2.83;;
48925;SDS011;39838;59.938;30.642;2023-04-15T08:39:23;16.10;;;2.85;;
48925;SDS011;39838;59.938;30.642;2023-04-15T08:41:51;17.38;;;2.90;;
48925;SDS011;39838;59.938;30.642;2023-04-15T08:44:25;5.32;;;2.65;;
48925;SDS011;39838;59.938;30.642;2023-04-15T08:46:55;5.10;;;2.55;;
48925;SDS011;39838;59.938;30.642;2023-04-15T08:49:26;12.15;;;3.03;;
48925;SDS011;39838;59.938;30.642;2023-04-15T08:51:57;7.00;;;2.67;;
48925;SDS011;39838;59.938;30.642;2023-04-15T08:54:25;7.57;;;2.78;;
48925;SDS011;39838;59.938;30.642;2023-04-15T08:56:53;10.18;;;2.72;;
48925;SDS011;39838;59.938;30.642;2023-04-15T08:59:20;10.25;;;2.80;;
48925;SDS011;39838;59.938;30.642;2023-04-15T09:01:48;7.70;;;2.63;;
48925;SDS011;39838;59.938;30.642;2023-04-15T09:04:16;6.30;;;2.83;;
48925;SDS011;39838;59.938;30.642;2023-04-15T09:06:45;4.82;;;2.70;;
48925;SDS011;39838;59.938;30.642;2023-04-15T09:09:12;8.40;;;2.90;;
48925;SDS011;39838;59.938;30.642;2023-04-15T09:11:39;14.13;;;4.22;;
48925;SDS011;39838;59.938;30.642;2023-04-15T09:14:07;13.48;;;3.58;;
48925;SDS011;39838;59.938;30.642;2023-04-15T09:19:22;6.43;;;3.00;;
48925;SDS011;39838;59.938;30.642;2023-04-15T09:21:52;6.57;;;3.03;;
48925;SDS011;39838;59.938;30.642;2023-04-15T09:24:19;6.95;;;3.28;;
48925;SDS011;39838;59.938;30.642;2023-04-15T09:26:47;11.88;;;3.88;;
48925;SDS011;39838;59.938;30.642;2023-04-15T09:29:18;8.07;;;3.30;;
48925;SDS011;39838;59.938;30.642;2023-04-15T09:31:45;12.88;;;4.30;;
48925;SDS011;39838;59.938;30.642;2023-04-15T09:34:12;8.07;;;3.80;;
48925;SDS011;39838;59.938;30.642;2023-04-15T09:36:52;11.32;;;3.83;;
48925;SDS011;39838;59.938;30.642;2023-04-15T09:39:21;7.20;;;3.75;;
48925;SDS011;39838;59.938;30.642;2023-04-15T09:42:03;10.95;;;3.85;;
48925;SDS011;39838;59.938;30.642;2023-04-15T09:44:32;11.30;;;3.30;;
48925;SDS011;39838;59.938;30.642;2023-04-15T09:46:59;6.40;;;3.30;;
48925;SDS011;39838;59.938;30.642;2023-04-15T09:49:26;13.30;;;3.78;;
48925;SDS011;39838;59.938;30.642;2023-04-15T09:51:58;9.20;;;3.78;;
48925;SDS011;39838;59.938;30.642;2023-04-15T09:54:31;13.35;;;4.43;;
48925;SDS011;39838;59.938;30.642;2023-04-15T09:57:06;15.50;;;4.05;;
48925;SDS011;39838;59.938;30.642;2023-04-15T09:59:36;9.95;;;4.10;;
48925;SDS011;39838;59.938;30.642;2023-04-15T10:02:03;11.10;;;3.75;;
48925;SDS011;39838;59.938;30.642;2023-04-15T10:04:32;10.43;;;3.70;;
48925;SDS011;39838;59.938;30.642;2023-04-15T10:07:04;11.38;;;3.33;;
48925;SDS011;39838;59.938;30.642;2023-04-15T10:09:31;23.52;;;4.18;;
48925;SDS011;39838;59.938;30.642;2023-04-15T10:11:59;10.45;;;3.75;;
48925;SDS011;39838;59.938;30.642;2023-04-15T10:14:27;9.35;;;3.30;;
48925;SDS011;39838;59.938;30.642;2023-04-15T10:16:57;6.38;;;3.25;;
48925;SDS011;39838;59.938;30.642;2023-04-15T10:19:27;18.02;;;3.70;;
48925;SDS011;39838;59.938;30.642;2023-04-15T10:21:57;14.98;;;3.60;;
48925;SDS011;39838;59.938;30.642;2023-04-15T10:24:26;11.38;;;3.30;;
48925;SDS011;39838;59.938;30.642;2023-04-15T10:26:53;4.63;;;2.80;;
48925;SDS011;39838;59.938;30.642;2023-04-15T10:29:22;13.65;;;2.97;;
48925;SDS011;39838;59.938;30.642;2023-04-15T10:31:51;7.97;;;3.10;;
48925;SDS011;39838;59.938;30.642;2023-04-15T10:34:20;7.93;;;2.70;;
48925;SDS011;39838;59.938;30.642;2023-04-15T10:36:48;8.23;;;2.63;;
48925;SDS011;39838;59.938;30.642;2023-04-15T10:42:07;9.90;;;2.72;;
48925;SDS011;39838;59.938;30.642;2023-04-15T10:44:35;7.60;;;2.53;;
48925;SDS011;39838;59.938;30.642;2023-04-15T10:47:05;8.20;;;2.58;;
48925;SDS011;39838;59.938;30.642;2023-04-15T10:49:44;10.82;;;2.72;;
48925;SDS011;39838;59.938;30.642;2023-04-15T10:52:13;9.15;;;2.53;;
48925;SDS011;39838;59.938;30.642;2023-04-15T10:54:43;12.48;;;2.95;;
48925;SDS011;39838;59.938;30.642;2023-04-15T10:57:14;6.05;;;2.80;;
48925;SDS011;39838;59.938;30.642;2023-04-15T11:00:02;9.27;;;2.50;;
48925;SDS011;39838;59.938;30.642;2023-04-15T11:02:41;8.07;;;2.50;;
48925;SDS011;39838;59.938;30.642;2023-04-15T11:05:10;4.35;;;2.22;;
48925;SDS011;39838;59.938;30.642;2023-04-15T11:07:38;4.00;;;2.33;;
48925;SDS011;39838;59.938;30.642;2023-04-15T11:13:20;6.38;;;2.70;;
48925;SDS011;39838;59.938;30.642;2023-04-15T11:15:57;9.30;;;2.70;;
48925;SDS011;39838;59.938;30.642;2023-04-15T11:18:27;8.50;;;2.60;;
48925;SDS011;39838;59.938;30.642;2023-04-15T11:20:56;8.20;;;3.00;;
48925;SDS011;39838;59.938;30.642;2023-04-15T11:23:29;8.35;;;3.00;;
48925;SDS011;39838;59.938;30.642;2023-04-15T11:25:57;10.27;;;2.70;;
48925;SDS011;39838;59.938;30.642;2023-04-15T11:28:27;8.52;;;2.60;;
48925;SDS011;39838;59.938;30.642;2023-04-15T11:30:56;6.32;;;2.80;;
48925;SDS011;39838;59.938;30.642;2023-04-15T11:33:24;11.68;;;3.08;;
48925;SDS011;39838;59.938;30.642;2023-04-15T11:35:51;7.63;;;3.08;;
48925;SDS011;39838;59.938;30.642;2023-04-15T11:38:19;9.55;;;3.03;;
48925;SDS011;39838;59.938;30.642;2023-04-15T11:40:47;9.55;;;2.95;;
48925;SDS011;39838;59.938;30.642;2023-04-15T11:43:15;14.35;;;3.20;;
48925;SDS011;39838;59.938;30.642;2023-04-15T11:45:50;11.68;;;3.17;;
48925;SDS011;39838;59.938;30.642;2023-04-15T11:48:20;8.90;;;3.00;;
48925;SDS011;39838;59.938;30.642;2023-04-15T11:50:52;8.07;;;3.30;;
48925;SDS011;39838;59.938;30.642;2023-04-15T11:53:20;4.45;;;2.60;;
48925;SDS011;39838;59.938;30.642;2023-04-15T11:55:49;8.90;;;3.33;;
48925;SDS011;39838;59.938;30.642;2023-04-15T11:58:18;8.13;;;2.90;;
48925;SDS011;39838;59.938;30.642;2023-04-15T12:00:47;6.55;;;2.53;;
48925;SDS011;39838;59.938;30.642;2023-04-15T12:03:21;7.20;;;2.95;;
48925;SDS011;39838;59.938;30.642;2023-04-15T12:06:05;9.57;;;3.38;;
48925;SDS011;39838;59.938;30.642;2023-04-15T12:11:29;8.38;;;2.92;;
48925;SDS011;39838;59.938;30.642;2023-04-15T12:13:58;9.15;;;3.00;;
48925;SDS011;39838;59.938;30.642;2023-04-15T12:16:30;12.27;;;3.08;;
48925;SDS011;39838;59.938;30.642;2023-04-15T12:18:59;6.25;;;3.00;;
48925;SDS011;39838;59.938;30.642;2023-04-15T12:21:27;5.32;;;2.90;;
48925;SDS011;39838;59.938;30.642;2023-04-15T12:24:00;8.45;;;2.88;;
48925;SDS011;39838;59.938;30.642;2023-04-15T12:26:30;8.23;;;2.75;;
48925;SDS011;39838;59.938;30.642;2023-04-15T12:28:59;7.15;;;2.85;;
48925;SDS011;39838;59.938;30.642;2023-04-15T12:31:28;11.18;;;3.30;;
48925;SDS011;39838;59.938;30.642;2023-04-15T12:33:57;8.50;;;2.92;;
48925;SDS011;39838;59.938;30.642;2023-04-15T12:36:25;8.10;;;2.70;;
48925;SDS011;39838;59.938;30.642;2023-04-15T12:38:53;6.43;;;2.90;;
48925;SDS011;39838;59.938;30.642;2023-04-15T12:41:20;7.93;;;3.00;;
48925;SDS011;39838;59.938;30.642;2023-04-15T12:43:48;7.47;;;3.03;;
48925;SDS011;39838;59.938;30.642;2023-04-15T12:46:16;7.18;;;2.50;;
48925;SDS011;39838;59.938;30.642;2023-04-15T12:48:46;13.10;;;2.80;;
48925;SDS011;39838;59.938;30.642;2023-04-15T12:51:13;4.18;;;2.50;;
48925;SDS011;39838;59.938;30.642;2023-04-15T12:53:40;6.63;;;2.50;;
48925;SDS011;39838;59.938;30.642;2023-04-15T12:56:07;10.40;;;2.70;;
48925;SDS011;39838;59.938;30.642;2023-04-15T12:58:35;3.78;;;2.60;;
48925;SDS011;39838;59.938;30.642;2023-04-15T13:01:02;7.55;;;3.00;;
48925;SDS011;39838;59.938;30.642;2023-04-15T13:03:29;4.80;;;2.67;;
48925;SDS011;39838;59.938;30.642;2023-04-15T13:05:57;8.30;;;2.80;;
48925;SDS011;39838;59.938;30.642;2023-04-15T13:08:26;6.82;;;2.88;;
48925;SDS011;39838;59.938;30.642;2023-04-15T13:10:53;7.93;;;2.80;;
48925;SDS011;39838;59.938;30.642;2023-04-15T13:13:21;9.05;;;3.25;;
48925;SDS011;39838;59.938;30.642;2023-04-15T13:15:48;11.65;;;4.15;;
48925;SDS011;39838;59.938;30.642;2023-04-15T13:18:15;11.20;;;3.17;;
48925;SDS011;39838;59.938;30.642;2023-04-15T13:20:42;5.03;;;2.33;;
48925;SDS011;39838;59.938;30.642;2023-04-15T13:23:11;6.93;;;2.72;;
48925;SDS011;39838;59.938;30.642;2023-04-15T13:25:38;7.47;;;3.05;;
48925;SDS011;39838;59.938;30.642;2023-04-15T13:28:05;7.85;;;2.80;;
48925;SDS011;39838;59.938;30.642;2023-04-15T13:30:32;14.50;;;3.50;;
48925;SDS011;39838;59.938;30.642;2023-04-15T13:32:59;8.25;;;2.42;;
48925;SDS011;39838;59.938;30.642;2023-04-15T13:35:27;8.95;;;2.85;;
48925;SDS011;39838;59.938;30.642;2023-04-15T13:37:54;8.02;;;3.20;;
48925;SDS011;39838;59.938;30.642;2023-04-15T13:40:23;10.27;;;3.22;;
48925;SDS011;39838;59.938;30.642;2023-04-15T13:42:50;10.23;;;3.10;;
48925;SDS011;39838;59.938;30.642;2023-04-15T13:45:17;8.57;;;3.30;;
48925;SDS011;39838;59.938;30.642;2023-04-15T13:47:45;9.30;;;2.95;;
48925;SDS011;39838;59.938;30.642;2023-04-15T13:50:12;7.10;;;2.97;;
48925;SDS011;39838;59.938;30.642;2023-04-15T13:52:39;5.25;;;2.78;;
48925;SDS011;39838;59.938;30.642;2023-04-15T13:55:06;7.13;;;2.67;;
48925;SDS011;39838;59.938;30.642;2023-04-15T13:57:36;18.15;;;2.90;;
48925;SDS011;39838;59.938;30.642;2023-04-15T14:00:03;7.88;;;2.60;;
48925;SDS011;39838;59.938;30.642;2023-04-15T14:02:31;7.78;;;2.80;;
48925;SDS011;39838;59.938;30.642;2023-04-15T14:04:59;7.97;;;2.78;;
48925;SDS011;39838;59.938;30.642;2023-04-15T14:07:28;6.28;;;2.88;;
48925;SDS011;39838;59.938;30.642;2023-04-15T14:09:55;8.13;;;2.83;;
48925;SDS011;39838;59.938;30.642;2023-04-15T14:12:22;9.88;;;2.88;;
48925;SDS011;39838;59.938;30.642;2023-04-15T14:14:51;6.28;;;3.25;;
48925;SDS011;39838;59.938;30.642;2023-04-15T14:17:18;11.90;;;3.28;;
48925;SDS011;39838;59.938;30.642;2023-04-15T14:19:45;8.05;;;3.33;;
48925;SDS011;39838;59.938;30.642;2023-04-15T14:22:13;6.57;;;3.20;;
48925;SDS011;39838;59.938;30.642;2023-04-15T14:24:40;10.18;;;3.80;;
48925;SDS011;39838;59.938;30.642;2023-04-15T14:27:07;6.22;;;3.13;;
48925;SDS011;39838;59.938;30.642;2023-04-15T14:29:36;5.38;;;2.97;;
48925;SDS011;39838;59.938;30.642;2023-04-15T14:32:05;7.18;;;3.00;;
48925;SDS011;39838;59.938;30.642;2023-04-15T14:34:32;6.95;;;2.70;;
48925;SDS011;39838;59.938;30.642;2023-04-15T14:37:00;4.97;;;2.40;;
48925;SDS011;39838;59.938;30.642;2023-04-15T14:39:29;6.47;;;2.60;;
48925;SDS011;39838;59.938;30.642;2023-04-15T14:41:56;8.25;;;3.13;;
48925;SDS011;39838;59.938;30.642;2023-04-15T14:44:24;5.15;;;2.88;;
48925;SDS011;39838;59.938;30.642;2023-04-15T14:46:51;6.93;;;3.15;;
48925;SDS011;39838;59.938;30.642;2023-04-15T14:49:20;7.10;;;3.53;;